sensor_id;sensor_type;location;lat;lon;timestamp;P1;durP1;ratioP1;P2;durP2;ratioP2
28170;SDS011;15458;53.346;-1.688;2022-12-07T00:01:15;6.00;;;1.30;;
28170;SDS011;15458;53.346;-1.688;2022-12-07T00:03:46;14.73;;;1.75;;
28170;SDS011;15458;53.346;-1.688;2022-12-07T00:06:13;6.13;;;1.52;;
28170;SDS011;15458;53.346;-1.688;2022-12-07T00:08:41;6.90;;;2.15;;
28170;SDS011;15458;53.346;-1.688;2022-12-07T00:11:08;10.85;;;1.40;;
28170;SDS011;15458;53.346;-1.688;2022-12-07T00:13:40;6.80;;;2.03;;
28170;SDS011;15458;53.346;-1.688;2022-12-07T00:16:07;11.27;;;1.70;;
28170;SDS011;15458;53.346;-1.688;2022-12-07T00:18:38;5.80;;;1.05;;
28170;SDS011;15458;53.346;-1.688;2022-12-07T00:21:05;4.57;;;1.08;;
28170;SDS011;15458;53.346;-1.688;2022-12-07T00:23:35;7.78;;;1.38;;
28170;SDS011;15458;53.346;-1.688;2022-12-07T00:26:03;8.98;;;1.15;;
28170;SDS011;15458;53.346;-1.688;2022-12-07T00:28:40;2.90;;;0.95;;
28170;SDS011;15458;53.346;-1.688;2022-12-07T00:31:11;11.63;;;1.55;;
28170;SDS011;15458;53.346;-1.688;2022-12-07T00:33:37;8.32;;;1.10;;
28170;SDS011;15458;53.346;-1.688;2022-12-07T00:36:05;9.13;;;1.23;;
28170;SDS011;15458;53.346;-1.688;2022-12-07T00:38:33;5.53;;;1.35;;
28170;SDS011;15458;53.346;-1.688;2022-12-07T00:41:01;8.50;;;1.60;;
28170;SDS011;15458;53.346;-1.688;2022-12-07T00:43:29;5.22;;;1.20;;
28170;SDS011;15458;53.346;-1.688;2022-12-07T00:45:55;4.97;;;1.98;;
28170;SDS011;15458;53.346;-1.688;2022-12-07T00:48:21;11.93;;;1.50;;
28170;SDS011;15458;53.346;-1.688;2022-12-07T00:50:47;10.65;;;1.67;;
28170;SDS011;15458;53.346;-1.688;2022-12-07T00:53:14;6.53;;;1.30;;
28170;SDS011;15458;53.346;-1.688;2022-12-07T00:55:40;3.85;;;1.50;;
28170;SDS011;15458;53.346;-1.688;2022-12-07T00:58:06;7.53;;;1.40;;
28170;SDS011;15458;53.346;-1.688;2022-12-07T01:00:32;8.75;;;1.55;;
28170;SDS011;15458;53.346;-1.688;2022-12-07T01:02:59;7.03;;;1.73;;
28170;SDS011;15458;53.346;-1.688;2022-12-07T01:05:25;6.13;;;1.23;;
28170;SDS011;15458;53.346;-1.688;2022-12-07T01:07:51;11.27;;;1.60;;
28170;SDS011;15458;53.346;-1.688;2022-12-07T01:10:17;9.98;;;1.73;;
28170;SDS011;15458;53.346;-1.688;2022-12-07T01:12:43;12.05;;;1.50;;
28170;SDS011;15458;53.346;-1.688;2022-12-07T01:15:09;10.15;;;1.38;;
28170;SDS011;15458;53.346;-1.688;2022-12-07T01:17:35;7.60;;;1.42;;
28170;SDS011;15458;53.346;-1.688;2022-12-07T01:20:01;11.77;;;1.35;;
28170;SDS011;15458;53.346;-1.688;2022-12-07T01:22:27;5.13;;;0.98;;
28170;SDS011;15458;53.346;-1.688;2022-12-07T01:24:53;3.97;;;1.20;;
28170;SDS011;15458;53.346;-1.688;2022-12-07T01:27:19;10.15;;;1.10;;
28170;SDS011;15458;53.346;-1.688;2022-12-07T01:29:45;10.70;;;3.60;;
28170;SDS011;15458;53.346;-1.688;2022-12-07T01:32:11;8.35;;;1.10;;
28170;SDS011;15458;53.346;-1.688;2022-12-07T01:34:37;4.63;;;0.90;;
28170;SDS011;15458;53.346;-1.688;2022-12-07T01:37:03;8.68;;;1.30;;
28170;SDS011;15458;53.346;-1.688;2022-12-07T01:39:29;4.95;;;1.10;;
28170;SDS011;15458;53.346;-1.688;2022-12-07T01:41:55;4.18;;;0.98;;
28170;SDS011;15458;53.346;-1.688;2022-12-07T01:46:50;10.20;;;1.35;;
28170;SDS011;15458;53.346;-1.688;2022-12-07T01:52:28;6.00;;;1.13;;
28170;SDS011;15458;53.346;-1.688;2022-12-07T01:54:57;7.72;;;2.38;;
28170;SDS011;15458;53.346;-1.688;2022-12-07T01:57:26;6.38;;;1.17;;
28170;SDS011;15458;53.346;-1.688;2022-12-07T01:59:53;9.23;;;1.55;;
28170;SDS011;15458;53.346;-1.688;2022-12-07T02:02:29;1.50;;;0.73;;
28170;SDS011;15458;53.346;-1.688;2022-12-07T02:04:59;13.07;;;2.15;;
28170;SDS011;15458;53.346;-1.688;2022-12-07T02:07:26;5.50;;;1.10;;
28170;SDS011;15458;53.346;-1.688;2022-12-07T02:09:52;8.93;;;1.70;;
28170;SDS011;15458;53.346;-1.688;2022-12-07T02:12:19;6.68;;;1.27;;
28170;SDS011;15458;53.346;-1.688;2022-12-07T02:14:45;7.40;;;0.90;;
28170;SDS011;15458;53.346;-1.688;2022-12-07T02:17:21;9.80;;;1.20;;
28170;SDS011;15458;53.346;-1.688;2022-12-07T02:20:03;10.75;;;1.83;;
28170;SDS011;15458;53.346;-1.688;2022-12-07T02:30:55;5.60;;;0.98;;
28170;SDS011;15458;53.346;-1.688;2022-12-07T02:33:36;7.30;;;0.90;;
28170;SDS011;15458;53.346;-1.688;2022-12-07T02:36:29;8.43;;;1.58;;
28170;SDS011;15458;53.346;-1.688;2022-12-07T02:39:02;6.18;;;1.10;;
28170;SDS011;15458;53.346;-1.688;2022-12-07T02:41:44;4.25;;;0.80;;
28170;SDS011;15458;53.346;-1.688;2022-12-07T02:44:15;5.72;;;1.05;;
28170;SDS011;15458;53.346;-1.688;2022-12-07T02:46:44;10.77;;;1.13;;
28170;SDS011;15458;53.346;-1.688;2022-12-07T02:49:16;6.90;;;0.88;;
28170;SDS011;15458;53.346;-1.688;2022-12-07T02:51:43;4.53;;;0.70;;
28170;SDS011;15458;53.346;-1.688;2022-12-07T02:54:14;2.22;;;0.88;;
28170;SDS011;15458;53.346;-1.688;2022-12-07T03:21:26;2.65;;;0.65;;
28170;SDS011;15458;53.346;-1.688;2022-12-07T03:23:58;2.60;;;0.47;;
28170;SDS011;15458;53.346;-1.688;2022-12-07T03:26:32;1.00;;;0.50;;
28170;SDS011;15458;53.346;-1.688;2022-12-07T03:29:01;4.22;;;0.80;;
28170;SDS011;15458;53.346;-1.688;2022-12-07T03:31:32;8.25;;;0.88;;
28170;SDS011;15458;53.346;-1.688;2022-12-07T03:34:09;4.65;;;0.73;;
28170;SDS011;15458;53.346;-1.688;2022-12-07T03:36:51;8.55;;;1.33;;
28170;SDS011;15458;53.346;-1.688;2022-12-07T03:42:16;3.42;;;0.60;;
28170;SDS011;15458;53.346;-1.688;2022-12-07T03:44:42;5.20;;;0.82;;
28170;SDS011;15458;53.346;-1.688;2022-12-07T03:47:27;5.82;;;0.90;;
28170;SDS011;15458;53.346;-1.688;2022-12-07T03:49:59;2.28;;;0.75;;
28170;SDS011;15458;53.346;-1.688;2022-12-07T03:52:43;3.35;;;0.75;;
28170;SDS011;15458;53.346;-1.688;2022-12-07T03:55:17;2.97;;;0.85;;
28170;SDS011;15458;53.346;-1.688;2022-12-07T03:57:45;4.47;;;0.80;;
28170;SDS011;15458;53.346;-1.688;2022-12-07T04:00:13;4.68;;;0.70;;
28170;SDS011;15458;53.346;-1.688;2022-12-07T04:02:40;4.88;;;0.90;;
28170;SDS011;15458;53.346;-1.688;2022-12-07T04:05:08;6.50;;;1.23;;
28170;SDS011;15458;53.346;-1.688;2022-12-07T04:07:34;3.05;;;0.70;;
28170;SDS011;15458;53.346;-1.688;2022-12-07T04:10:04;2.88;;;0.73;;
28170;SDS011;15458;53.346;-1.688;2022-12-07T04:12:30;2.95;;;0.65;;
28170;SDS011;15458;53.346;-1.688;2022-12-07T04:14:57;3.45;;;0.60;;
28170;SDS011;15458;53.346;-1.688;2022-12-07T04:17:24;4.47;;;0.70;;
28170;SDS011;15458;53.346;-1.688;2022-12-07T04:19:49;9.60;;;1.10;;
28170;SDS011;15458;53.346;-1.688;2022-12-07T04:22:15;3.92;;;0.68;;
28170;SDS011;15458;53.346;-1.688;2022-12-07T04:24:41;1.42;;;0.50;;
28170;SDS011;15458;53.346;-1.688;2022-12-07T04:27:06;6.70;;;1.00;;
28170;SDS011;15458;53.346;-1.688;2022-12-07T04:29:32;3.28;;;1.17;;
28170;SDS011;15458;53.346;-1.688;2022-12-07T04:31:58;4.00;;;0.90;;
28170;SDS011;15458;53.346;-1.688;2022-12-07T04:34:23;3.60;;;0.52;;
28170;SDS011;15458;53.346;-1.688;2022-12-07T04:36:49;5.85;;;0.60;;
28170;SDS011;15458;53.346;-1.688;2022-12-07T04:39:23;4.75;;;0.75;;
28170;SDS011;15458;53.346;-1.688;2022-12-07T04:41:53;5.03;;;0.88;;
28170;SDS011;15458;53.346;-1.688;2022-12-07T04:44:20;3.47;;;1.23;;
28170;SDS011;15458;53.346;-1.688;2022-12-07T04:46:47;5.07;;;0.70;;
28170;SDS011;15458;53.346;-1.688;2022-12-07T04:49:13;2.58;;;0.60;;
28170;SDS011;15458;53.346;-1.688;2022-12-07T04:51:40;4.05;;;0.52;;
28170;SDS011;15458;53.346;-1.688;2022-12-07T04:54:06;2.92;;;0.70;;
28170;SDS011;15458;53.346;-1.688;2022-12-07T04:56:32;5.50;;;0.50;;
28170;SDS011;15458;53.346;-1.688;2022-12-07T04:59:00;3.83;;;0.77;;
28170;SDS011;15458;53.346;-1.688;2022-12-07T05:01:26;9.23;;;1.13;;
28170;SDS011;15458;53.346;-1.688;2022-12-07T05:03:51;2.65;;;0.50;;
28170;SDS011;15458;53.346;-1.688;2022-12-07T05:06:17;3.75;;;0.70;;
28170;SDS011;15458;53.346;-1.688;2022-12-07T05:08:43;3.83;;;0.70;;
28170;SDS011;15458;53.346;-1.688;2022-12-07T05:11:09;4.45;;;0.80;;
28170;SDS011;15458;53.346;-1.688;2022-12-07T05:13:55;3.03;;;1.17;;
28170;SDS011;15458;53.346;-1.688;2022-12-07T05:16:21;4.10;;;0.77;;
28170;SDS011;15458;53.346;-1.688;2022-12-07T05:18:47;8.73;;;0.85;;
28170;SDS011;15458;53.346;-1.688;2022-12-07T05:21:12;4.10;;;0.50;;
28170;SDS011;15458;53.346;-1.688;2022-12-07T05:23:38;2.35;;;0.77;;
28170;SDS011;15458;53.346;-1.688;2022-12-07T05:26:03;5.90;;;0.80;;
28170;SDS011;15458;53.346;-1.688;2022-12-07T05:28:29;2.10;;;0.57;;
28170;SDS011;15458;53.346;-1.688;2022-12-07T05:30:55;2.40;;;0.82;;
28170;SDS011;15458;53.346;-1.688;2022-12-07T05:33:20;3.40;;;0.60;;
28170;SDS011;15458;53.346;-1.688;2022-12-07T05:35:46;3.65;;;0.70;;
28170;SDS011;15458;53.346;-1.688;2022-12-07T05:38:12;3.03;;;1.30;;
28170;SDS011;15458;53.346;-1.688;2022-12-07T05:40:37;2.10;;;0.90;;
28170;SDS011;15458;53.346;-1.688;2022-12-07T05:43:03;2.63;;;0.60;;
28170;SDS011;15458;53.346;-1.688;2022-12-07T05:45:29;3.40;;;0.80;;
28170;SDS011;15458;53.346;-1.688;2022-12-07T05:47:54;6.25;;;0.80;;
28170;SDS011;15458;53.346;-1.688;2022-12-07T05:50:20;2.38;;;1.00;;
28170;SDS011;15458;53.346;-1.688;2022-12-07T05:52:46;4.95;;;1.10;;
28170;SDS011;15458;53.346;-1.688;2022-12-07T05:55:11;1.58;;;0.52;;
28170;SDS011;15458;53.346;-1.688;2022-12-07T05:57:37;3.83;;;0.63;;
28170;SDS011;15458;53.346;-1.688;2022-12-07T06:00:03;6.15;;;1.52;;
28170;SDS011;15458;53.346;-1.688;2022-12-07T06:02:29;3.47;;;0.70;;
28170;SDS011;15458;53.346;-1.688;2022-12-07T06:04:55;3.97;;;0.80;;
28170;SDS011;15458;53.346;-1.688;2022-12-07T06:07:21;2.33;;;0.70;;
28170;SDS011;15458;53.346;-1.688;2022-12-07T06:09:46;4.03;;;0.85;;
28170;SDS011;15458;53.346;-1.688;2022-12-07T06:12:12;5.80;;;0.80;;
28170;SDS011;15458;53.346;-1.688;2022-12-07T06:14:57;0.52;;;0.47;;
28170;SDS011;15458;53.346;-1.688;2022-12-07T06:17:23;2.83;;;0.60;;
28170;SDS011;15458;53.346;-1.688;2022-12-07T06:19:49;2.63;;;0.60;;
28170;SDS011;15458;53.346;-1.688;2022-12-07T06:22:14;3.85;;;0.77;;
28170;SDS011;15458;53.346;-1.688;2022-12-07T06:24:41;4.65;;;0.88;;
28170;SDS011;15458;53.346;-1.688;2022-12-07T06:27:07;2.53;;;0.90;;
28170;SDS011;15458;53.346;-1.688;2022-12-07T06:29:33;3.67;;;0.88;;
28170;SDS011;15458;53.346;-1.688;2022-12-07T06:31:59;3.83;;;1.33;;
28170;SDS011;15458;53.346;-1.688;2022-12-07T06:34:25;7.32;;;1.00;;
28170;SDS011;15458;53.346;-1.688;2022-12-07T06:36:52;6.25;;;0.70;;
28170;SDS011;15458;53.346;-1.688;2022-12-07T06:39:28;3.65;;;0.70;;
28170;SDS011;15458;53.346;-1.688;2022-12-07T06:41:54;3.00;;;0.65;;
28170;SDS011;15458;53.346;-1.688;2022-12-07T06:44:21;4.40;;;0.65;;
28170;SDS011;15458;53.346;-1.688;2022-12-07T06:46:47;6.70;;;0.80;;
28170;SDS011;15458;53.346;-1.688;2022-12-07T06:49:14;1.38;;;0.55;;
28170;SDS011;15458;53.346;-1.688;2022-12-07T06:51:39;3.72;;;1.00;;
28170;SDS011;15458;53.346;-1.688;2022-12-07T06:54:09;4.88;;;0.95;;
28170;SDS011;15458;53.346;-1.688;2022-12-07T06:56:36;7.10;;;1.13;;
28170;SDS011;15458;53.346;-1.688;2022-12-07T06:59:02;4.72;;;1.15;;
28170;SDS011;15458;53.346;-1.688;2022-12-07T07:01:30;1.52;;;0.70;;
28170;SDS011;15458;53.346;-1.688;2022-12-07T07:03:55;4.70;;;0.80;;
28170;SDS011;15458;53.346;-1.688;2022-12-07T07:06:21;5.97;;;1.00;;
28170;SDS011;15458;53.346;-1.688;2022-12-07T07:08:47;3.35;;;1.17;;
28170;SDS011;15458;53.346;-1.688;2022-12-07T07:11:13;5.57;;;1.00;;
28170;SDS011;15458;53.346;-1.688;2022-12-07T07:13:38;1.98;;;1.02;;
28170;SDS011;15458;53.346;-1.688;2022-12-07T07:16:05;3.83;;;0.85;;
28170;SDS011;15458;53.346;-1.688;2022-12-07T07:18:31;3.75;;;0.95;;
28170;SDS011;15458;53.346;-1.688;2022-12-07T07:20:57;4.25;;;0.98;;
28170;SDS011;15458;53.346;-1.688;2022-12-07T07:23:23;3.30;;;0.90;;
28170;SDS011;15458;53.346;-1.688;2022-12-07T07:25:49;17.27;;;1.48;;
28170;SDS011;15458;53.346;-1.688;2022-12-07T07:28:16;0.70;;;0.52;;
28170;SDS011;15458;53.346;-1.688;2022-12-07T07:30:41;9.75;;;1.15;;
28170;SDS011;15458;53.346;-1.688;2022-12-07T07:33:07;4.65;;;0.90;;
28170;SDS011;15458;53.346;-1.688;2022-12-07T07:35:34;4.18;;;0.80;;
28170;SDS011;15458;53.346;-1.688;2022-12-07T07:38:00;3.67;;;0.90;;
28170;SDS011;15458;53.346;-1.688;2022-12-07T07:40:27;3.20;;;1.00;;
28170;SDS011;15458;53.346;-1.688;2022-12-07T07:42:56;6.35;;;1.08;;
28170;SDS011;15458;53.346;-1.688;2022-12-07T07:45:23;3.53;;;0.65;;
28170;SDS011;15458;53.346;-1.688;2022-12-07T07:47:50;2.70;;;0.80;;
28170;SDS011;15458;53.346;-1.688;2022-12-07T07:50:16;4.10;;;1.00;;
28170;SDS011;15458;53.346;-1.688;2022-12-07T07:52:46;8.97;;;1.50;;
28170;SDS011;15458;53.346;-1.688;2022-12-07T07:55:12;3.80;;;1.10;;
28170;SDS011;15458;53.346;-1.688;2022-12-07T07:57:38;6.47;;;1.25;;
28170;SDS011;15458;53.346;-1.688;2022-12-07T08:00:06;3.85;;;0.90;;
28170;SDS011;15458;53.346;-1.688;2022-12-07T08:02:34;1.48;;;0.85;;
28170;SDS011;15458;53.346;-1.688;2022-12-07T08:04:59;3.38;;;0.88;;
28170;SDS011;15458;53.346;-1.688;2022-12-07T08:07:26;5.93;;;1.10;;
28170;SDS011;15458;53.346;-1.688;2022-12-07T08:09:55;4.03;;;1.30;;
28170;SDS011;15458;53.346;-1.688;2022-12-07T08:12:21;5.38;;;0.85;;
28170;SDS011;15458;53.346;-1.688;2022-12-07T08:14:46;5.10;;;0.90;;
28170;SDS011;15458;53.346;-1.688;2022-12-07T08:17:12;2.40;;;1.15;;
28170;SDS011;15458;53.346;-1.688;2022-12-07T08:19:38;7.00;;;1.15;;
28170;SDS011;15458;53.346;-1.688;2022-12-07T08:22:03;5.55;;;1.27;;
28170;SDS011;15458;53.346;-1.688;2022-12-07T08:24:29;5.10;;;1.05;;
28170;SDS011;15458;53.346;-1.688;2022-12-07T08:26:57;5.82;;;1.10;;
28170;SDS011;15458;53.346;-1.688;2022-12-07T08:29:23;3.92;;;1.27;;
28170;SDS011;15458;53.346;-1.688;2022-12-07T08:31:49;8.57;;;1.38;;
28170;SDS011;15458;53.346;-1.688;2022-12-07T08:34:14;6.43;;;1.38;;
28170;SDS011;15458;53.346;-1.688;2022-12-07T08:36:40;3.05;;;1.55;;
28170;SDS011;15458;53.346;-1.688;2022-12-07T08:39:06;8.98;;;1.75;;
28170;SDS011;15458;53.346;-1.688;2022-12-07T08:41:32;2.60;;;1.20;;
28170;SDS011;15458;53.346;-1.688;2022-12-07T08:43:58;7.25;;;1.50;;
28170;SDS011;15458;53.346;-1.688;2022-12-07T08:46:40;7.13;;;1.70;;
28170;SDS011;15458;53.346;-1.688;2022-12-07T08:49:12;2.53;;;1.17;;
28170;SDS011;15458;53.346;-1.688;2022-12-07T08:51:42;3.70;;;1.20;;
28170;SDS011;15458;53.346;-1.688;2022-12-07T08:54:14;3.72;;;1.20;;
28170;SDS011;15458;53.346;-1.688;2022-12-07T08:56:42;4.65;;;1.40;;
28170;SDS011;15458;53.346;-1.688;2022-12-07T09:01:41;7.40;;;1.63;;
28170;SDS011;15458;53.346;-1.688;2022-12-07T09:04:10;3.45;;;1.48;;
28170;SDS011;15458;53.346;-1.688;2022-12-07T09:06:36;4.38;;;1.27;;
28170;SDS011;15458;53.346;-1.688;2022-12-07T09:09:08;5.25;;;1.20;;
28170;SDS011;15458;53.346;-1.688;2022-12-07T09:11:44;6.20;;;1.27;;
28170;SDS011;15458;53.346;-1.688;2022-12-07T09:14:20;7.50;;;1.67;;
28170;SDS011;15458;53.346;-1.688;2022-12-07T09:16:47;11.48;;;3.88;;
28170;SDS011;15458;53.346;-1.688;2022-12-07T09:19:20;15.35;;;4.38;;
28170;SDS011;15458;53.346;-1.688;2022-12-07T09:21:48;11.57;;;4.60;;
28170;SDS011;15458;53.346;-1.688;2022-12-07T09:24:23;16.45;;;4.75;;
28170;SDS011;15458;53.346;-1.688;2022-12-07T09:26:52;21.33;;;7.60;;
28170;SDS011;15458;53.346;-1.688;2022-12-07T09:29:18;20.55;;;7.90;;
28170;SDS011;15458;53.346;-1.688;2022-12-07T09:31:44;18.13;;;6.32;;
28170;SDS011;15458;53.346;-1.688;2022-12-07T09:34:10;19.73;;;6.78;;
28170;SDS011;15458;53.346;-1.688;2022-12-07T09:36:36;12.75;;;5.30;;
28170;SDS011;15458;53.346;-1.688;2022-12-07T09:39:03;12.75;;;4.78;;
28170;SDS011;15458;53.346;-1.688;2022-12-07T09:41:33;14.93;;;4.55;;
28170;SDS011;15458;53.346;-1.688;2022-12-07T09:44:06;9.50;;;3.83;;
28170;SDS011;15458;53.346;-1.688;2022-12-07T09:46:39;6.95;;;4.05;;
28170;SDS011;15458;53.346;-1.688;2022-12-07T09:54:33;9.95;;;3.42;;
28170;SDS011;15458;53.346;-1.688;2022-12-07T09:57:04;20.27;;;7.40;;
28170;SDS011;15458;53.346;-1.688;2022-12-07T09:59:32;19.23;;;5.90;;
28170;SDS011;15458;53.346;-1.688;2022-12-07T10:02:02;20.45;;;6.57;;
28170;SDS011;15458;53.346;-1.688;2022-12-07T10:04:58;20.58;;;6.45;;
28170;SDS011;15458;53.346;-1.688;2022-12-07T10:07:30;18.58;;;6.40;;
28170;SDS011;15458;53.346;-1.688;2022-12-07T10:09:56;17.15;;;6.15;;
28170;SDS011;15458;53.346;-1.688;2022-12-07T10:12:23;15.50;;;5.18;;
28170;SDS011;15458;53.346;-1.688;2022-12-07T10:14:56;13.40;;;5.07;;
28170;SDS011;15458;53.346;-1.688;2022-12-07T10:17:37;14.20;;;4.40;;
28170;SDS011;15458;53.346;-1.688;2022-12-07T10:23:19;5.20;;;2.42;;
28170;SDS011;15458;53.346;-1.688;2022-12-07T10:25:43;8.38;;;2.20;;
28170;SDS011;15458;53.346;-1.688;2022-12-07T10:28:11;9.45;;;2.92;;
28170;SDS011;15458;53.346;-1.688;2022-12-07T10:31:15;7.40;;;3.25;;
28170;SDS011;15458;53.346;-1.688;2022-12-07T10:33:56;10.25;;;4.13;;
28170;SDS011;15458;53.346;-1.688;2022-12-07T10:36:30;7.25;;;2.83;;
28170;SDS011;15458;53.346;-1.688;2022-12-07T10:39:17;7.38;;;2.55;;
28170;SDS011;15458;53.346;-1.688;2022-12-07T10:41:59;7.82;;;1.80;;
28170;SDS011;15458;53.346;-1.688;2022-12-07T10:44:28;6.43;;;1.40;;
28170;SDS011;15458;53.346;-1.688;2022-12-07T10:56:00;10.93;;;2.88;;
28170;SDS011;15458;53.346;-1.688;2022-12-07T11:01:35;5.30;;;1.08;;
28170;SDS011;15458;53.346;-1.688;2022-12-07T11:10:47;6.28;;;1.00;;
28170;SDS011;15458;53.346;-1.688;2022-12-07T11:18:55;7.57;;;1.08;;
28170;SDS011;15458;53.346;-1.688;2022-12-07T11:21:45;4.75;;;0.93;;
28170;SDS011;15458;53.346;-1.688;2022-12-07T11:24:28;6.97;;;1.23;;
28170;SDS011;15458;53.346;-1.688;2022-12-07T11:30:19;3.67;;;1.27;;
28170;SDS011;15458;53.346;-1.688;2022-12-07T11:33:00;2.70;;;0.95;;
28170;SDS011;15458;53.346;-1.688;2022-12-07T11:38:47;7.18;;;1.40;;
28170;SDS011;15458;53.346;-1.688;2022-12-07T11:41:22;5.47;;;2.08;;
28170;SDS011;15458;53.346;-1.688;2022-12-07T11:49:20;5.90;;;1.70;;
28170;SDS011;15458;53.346;-1.688;2022-12-07T11:55:14;7.53;;;1.58;;
28170;SDS011;15458;53.346;-1.688;2022-12-07T16:12:24;23.60;;;11.82;;
28170;SDS011;15458;53.346;-1.688;2022-12-07T16:14:50;25.02;;;12.88;;
28170;SDS011;15458;53.346;-1.688;2022-12-07T16:17:16;25.00;;;12.75;;
28170;SDS011;15458;53.346;-1.688;2022-12-07T16:19:41;25.08;;;12.85;;
28170;SDS011;15458;53.346;-1.688;2022-12-07T16:22:07;25.50;;;12.48;;
28170;SDS011;15458;53.346;-1.688;2022-12-07T16:24:32;28.80;;;12.20;;
28170;SDS011;15458;53.346;-1.688;2022-12-07T16:26:58;24.60;;;11.88;;
28170;SDS011;15458;53.346;-1.688;2022-12-07T16:29:24;24.58;;;12.13;;
28170;SDS011;15458;53.346;-1.688;2022-12-07T16:31:50;27.88;;;12.20;;
28170;SDS011;15458;53.346;-1.688;2022-12-07T16:34:16;23.48;;;12.32;;
28170;SDS011;15458;53.346;-1.688;2022-12-07T16:36:42;29.30;;;11.93;;
28170;SDS011;15458;53.346;-1.688;2022-12-07T16:39:08;20.20;;;11.23;;
28170;SDS011;15458;53.346;-1.688;2022-12-07T16:41:34;27.60;;;12.13;;
28170;SDS011;15458;53.346;-1.688;2022-12-07T16:44:02;22.00;;;11.43;;
28170;SDS011;15458;53.346;-1.688;2022-12-07T16:46:30;26.17;;;11.80;;
28170;SDS011;15458;53.346;-1.688;2022-12-07T16:48:57;24.40;;;11.88;;
28170;SDS011;15458;53.346;-1.688;2022-12-07T16:51:23;24.35;;;11.18;;
28170;SDS011;15458;53.346;-1.688;2022-12-07T16:53:48;24.00;;;12.30;;
28170;SDS011;15458;53.346;-1.688;2022-12-07T17:25:18;22.65;;;10.15;;
28170;SDS011;15458;53.346;-1.688;2022-12-07T17:27:45;21.50;;;10.25;;
28170;SDS011;15458;53.346;-1.688;2022-12-07T17:30:12;22.20;;;10.85;;
28170;SDS011;15458;53.346;-1.688;2022-12-07T17:32:38;21.52;;;10.68;;
28170;SDS011;15458;53.346;-1.688;2022-12-07T17:35:04;24.80;;;10.85;;
28170;SDS011;15458;53.346;-1.688;2022-12-07T17:37:31;23.75;;;11.50;;
28170;SDS011;15458;53.346;-1.688;2022-12-07T17:39:57;28.98;;;14.55;;
28170;SDS011;15458;53.346;-1.688;2022-12-07T17:42:24;26.23;;;11.70;;
28170;SDS011;15458;53.346;-1.688;2022-12-07T17:45:10;23.95;;;11.68;;
28170;SDS011;15458;53.346;-1.688;2022-12-07T17:47:36;28.33;;;11.77;;
28170;SDS011;15458;53.346;-1.688;2022-12-07T17:50:03;20.77;;;11.02;;
28170;SDS011;15458;53.346;-1.688;2022-12-07T17:52:32;28.42;;;11.23;;
28170;SDS011;15458;53.346;-1.688;2022-12-07T17:55:17;29.15;;;9.25;;
28170;SDS011;15458;53.346;-1.688;2022-12-07T17:57:43;26.45;;;11.40;;
28170;SDS011;15458;53.346;-1.688;2022-12-07T18:00:08;21.20;;;9.10;;
28170;SDS011;15458;53.346;-1.688;2022-12-07T18:02:35;22.52;;;8.13;;
28170;SDS011;15458;53.346;-1.688;2022-12-07T18:05:01;18.02;;;7.55;;
28170;SDS011;15458;53.346;-1.688;2022-12-07T18:07:27;14.10;;;7.20;;
28170;SDS011;15458;53.346;-1.688;2022-12-07T18:09:53;17.75;;;6.80;;
28170;SDS011;15458;53.346;-1.688;2022-12-07T18:12:21;16.77;;;7.80;;
28170;SDS011;15458;53.346;-1.688;2022-12-07T18:14:47;15.32;;;6.75;;
28170;SDS011;15458;53.346;-1.688;2022-12-07T18:17:14;14.70;;;7.72;;
28170;SDS011;15458;53.346;-1.688;2022-12-07T18:19:43;15.88;;;6.57;;
28170;SDS011;15458;53.346;-1.688;2022-12-07T18:22:09;18.48;;;7.25;;
28170;SDS011;15458;53.346;-1.688;2022-12-07T18:24:35;18.98;;;8.98;;
28170;SDS011;15458;53.346;-1.688;2022-12-07T18:27:02;14.90;;;7.35;;
28170;SDS011;15458;53.346;-1.688;2022-12-07T18:29:28;14.88;;;7.13;;
28170;SDS011;15458;53.346;-1.688;2022-12-07T18:31:54;14.85;;;6.80;;
28170;SDS011;15458;53.346;-1.688;2022-12-07T18:34:20;18.85;;;6.60;;
28170;SDS011;15458;53.346;-1.688;2022-12-07T18:36:46;21.17;;;7.57;;
28170;SDS011;15458;53.346;-1.688;2022-12-07T18:39:17;18.65;;;7.25;;
28170;SDS011;15458;53.346;-1.688;2022-12-07T18:41:43;14.68;;;6.32;;
28170;SDS011;15458;53.346;-1.688;2022-12-07T18:44:10;14.10;;;7.20;;
28170;SDS011;15458;53.346;-1.688;2022-12-07T18:46:37;19.40;;;7.40;;
28170;SDS011;15458;53.346;-1.688;2022-12-07T18:49:04;15.95;;;6.65;;
28170;SDS011;15458;53.346;-1.688;2022-12-07T18:51:30;15.30;;;7.20;;
28170;SDS011;15458;53.346;-1.688;2022-12-07T18:53:56;15.20;;;5.88;;
28170;SDS011;15458;53.346;-1.688;2022-12-07T18:56:22;15.77;;;6.57;;
28170;SDS011;15458;53.346;-1.688;2022-12-07T18:58:50;11.57;;;5.55;;
28170;SDS011;15458;53.346;-1.688;2022-12-07T19:01:36;11.30;;;5.72;;
28170;SDS011;15458;53.346;-1.688;2022-12-07T19:04:02;9.60;;;5.35;;
28170;SDS011;15458;53.346;-1.688;2022-12-07T19:06:28;11.35;;;5.75;;
28170;SDS011;15458;53.346;-1.688;2022-12-07T19:08:54;11.18;;;5.30;;
28170;SDS011;15458;53.346;-1.688;2022-12-07T19:11:22;11.88;;;4.80;;
28170;SDS011;15458;53.346;-1.688;2022-12-07T19:14:14;12.40;;;5.10;;
28170;SDS011;15458;53.346;-1.688;2022-12-07T19:16:41;16.40;;;5.45;;
28170;SDS011;15458;53.346;-1.688;2022-12-07T19:19:07;8.82;;;4.72;;
28170;SDS011;15458;53.346;-1.688;2022-12-07T19:21:33;10.05;;;5.13;;
28170;SDS011;15458;53.346;-1.688;2022-12-07T19:24:01;10.88;;;4.53;;
28170;SDS011;15458;53.346;-1.688;2022-12-07T19:26:28;16.30;;;4.50;;
28170;SDS011;15458;53.346;-1.688;2022-12-07T19:28:53;8.75;;;4.18;;
28170;SDS011;15458;53.346;-1.688;2022-12-07T19:31:19;10.45;;;5.05;;
28170;SDS011;15458;53.346;-1.688;2022-12-07T19:33:45;11.98;;;4.55;;
28170;SDS011;15458;53.346;-1.688;2022-12-07T19:36:10;9.70;;;4.85;;
28170;SDS011;15458;53.346;-1.688;2022-12-07T19:38:36;10.93;;;4.82;;
28170;SDS011;15458;53.346;-1.688;2022-12-07T19:41:09;10.48;;;4.82;;
28170;SDS011;15458;53.346;-1.688;2022-12-07T19:43:54;9.35;;;4.60;;
28170;SDS011;15458;53.346;-1.688;2022-12-07T19:46:20;12.50;;;5.68;;
28170;SDS011;15458;53.346;-1.688;2022-12-07T19:48:48;14.95;;;5.18;;
28170;SDS011;15458;53.346;-1.688;2022-12-07T19:51:14;8.63;;;5.07;;
28170;SDS011;15458;53.346;-1.688;2022-12-07T19:53:40;23.65;;;10.35;;
28170;SDS011;15458;53.346;-1.688;2022-12-07T19:56:06;21.02;;;8.73;;
28170;SDS011;15458;53.346;-1.688;2022-12-07T19:58:32;29.77;;;13.98;;
28170;SDS011;15458;53.346;-1.688;2022-12-07T20:01:04;18.23;;;9.05;;
28170;SDS011;15458;53.346;-1.688;2022-12-07T20:03:30;15.95;;;7.75;;
28170;SDS011;15458;53.346;-1.688;2022-12-07T20:05:56;9.63;;;6.03;;
28170;SDS011;15458;53.346;-1.688;2022-12-07T20:08:22;15.15;;;6.45;;
28170;SDS011;15458;53.346;-1.688;2022-12-07T20:10:49;10.70;;;4.55;;
28170;SDS011;15458;53.346;-1.688;2022-12-07T20:13:18;7.00;;;3.40;;
28170;SDS011;15458;53.346;-1.688;2022-12-07T20:15:55;11.75;;;3.80;;
28170;SDS011;15458;53.346;-1.688;2022-12-07T20:18:20;6.28;;;2.60;;
28170;SDS011;15458;53.346;-1.688;2022-12-07T20:20:53;7.85;;;3.83;;
28170;SDS011;15458;53.346;-1.688;2022-12-07T20:23:20;12.35;;;2.63;;
28170;SDS011;15458;53.346;-1.688;2022-12-07T20:25:49;7.03;;;2.22;;
28170;SDS011;15458;53.346;-1.688;2022-12-07T20:28:15;7.53;;;2.78;;
28170;SDS011;15458;53.346;-1.688;2022-12-07T20:30:47;5.68;;;2.88;;
28170;SDS011;15458;53.346;-1.688;2022-12-07T20:33:14;7.13;;;4.00;;
28170;SDS011;15458;53.346;-1.688;2022-12-07T20:35:40;10.07;;;4.22;;
28170;SDS011;15458;53.346;-1.688;2022-12-07T20:38:06;8.13;;;3.25;;
28170;SDS011;15458;53.346;-1.688;2022-12-07T20:40:32;6.20;;;3.35;;
28170;SDS011;15458;53.346;-1.688;2022-12-07T20:42:58;6.78;;;2.92;;
28170;SDS011;15458;53.346;-1.688;2022-12-07T20:45:24;11.00;;;3.00;;
28170;SDS011;15458;53.346;-1.688;2022-12-07T20:47:49;9.55;;;3.10;;
28170;SDS011;15458;53.346;-1.688;2022-12-07T20:50:15;6.30;;;2.50;;
28170;SDS011;15458;53.346;-1.688;2022-12-07T20:52:41;4.93;;;2.67;;